F/V Evann Emma — FGUH — position and weather

sailwx.info

Track history (hours):
 
Tides and Currents Weather Stations Pressure Air Temp Water Temp Dewpoint Dewpoint Depression Visibility Wind Speed Wind Dir Waves Ship Positions

F/V Evann Emma

Last reported at 2017-Dec-19 06:23 UTC. Time now 2018-Feb-22 03:19 UTC.
Position N 48°44' W 003°59'.
Warning: this ship's position is months out of date.

Length 20 m.

Type: Fishing. MMSI: 227904000.

Date/timePositionNaut miles runAvg speedWind from/ knotsBaromVisibWave heightAir tempDewpointWater temp
2017-Dec-19 06:23N 48°44' W 003°59'0 0.1
2017-Dec-19 03:45N 48°44' W 003°58'1 4.9
2017-Dec-19 03:30N 48°44' W 003°57'3 5.1
2017-Dec-19 03:01N 48°47' W 003°56'1 0.9
2017-Dec-19 02:19N 48°46' W 003°55'3 3.5
2017-Dec-19 01:24N 48°47' W 004°00'4 9.4
2017-Dec-19 00:57N 48°47' W 004°06'5 8.9
2017-Dec-19 00:22N 48°45' W 004°14'3 8.7
2017-Dec-18 23:59N 48°44' W 004°19'4 8.4
2017-Dec-18 23:30N 48°43' W 004°25'4 8.1
2017-Dec-18 23:00N 48°42' W 004°31'4 7.7
2017-Dec-18 22:31N 48°41' W 004°36'4 7.5
2017-Dec-18 22:01N 48°39' W 004°41'4 7.3
2017-Dec-18 21:30N 48°38' W 004°46'3 6.8
2017-Dec-18 21:01N 48°35' W 004°50'4 8.2
2017-Dec-18 20:30N 48°32' W 004°54'4 8.8
2017-Dec-18 20:00N 48°29' W 004°58'3 6.5
2017-Dec-18 19:31N 48°27' W 005°02'2 3.0
2017-Dec-18 19:01N 48°26' W 005°04'2 4.9
2017-Dec-18 18:31N 48°24' W 005°06'5 8.7
2017-Dec-18 17:59N 48°20' W 005°10'6 9.3
2017-Dec-18 17:23N 48°15' W 005°14'4 9.6
2017-Dec-18 17:00N 48°12' W 005°17'6 9.8
2017-Dec-18 16:26N 48°08' W 005°22'510.2
2017-Dec-18 15:58N 48°04' W 005°26'710.4
2017-Dec-18 15:18N 47°58' W 005°32'310.5
2017-Dec-18 14:59N 47°55' W 005°34'610.5
2017-Dec-18 14:27N 47°50' W 005°39'510.5
2017-Dec-18 13:58N 47°46' W 005°43'510.6
2017-Dec-18 13:30N 47°42' W 005°47'510.2
2017-Dec-18 12:57N 47°37' W 005°51'510.2
2017-Dec-18 12:30N 47°33' W 005°55'6 9.9
2017-Dec-18 11:57N 47°29' W 005°60'5 9.6
2017-Dec-18 11:28N 47°25' W 006°03'4 7.7
2017-Dec-18 10:59N 47°22' W 006°06'0 0.6
2017-Dec-18 10:16N 47°22' W 006°06'1 2.8
2017-Dec-18 09:56N 47°21' W 006°07'3 0.2
2017-Dec-17 18:01N 47°24' W 006°04'2 3.2
2017-Dec-17 17:25N 47°22' W 006°06'  
Track history (hours):
 
Tides and Currents Weather Stations Pressure Air Temp Water Temp Dewpoint Dewpoint Depression Visibility Wind Speed Wind Dir Waves Ship Positions

F/V Evann Emma

Last reported at 2017-Dec-19 06:23 UTC. Time now 2018-Feb-22 03:19 UTC.
Position N 48°44' W 003°59'.
Warning: this ship's position is months out of date.

Length 20 m.

Type: Fishing. MMSI: 227904000.

Date/timePositionNaut miles runAvg speedWind from/ knotsBaromVisibWave heightAir tempDewpointWater temp
2017-Dec-19 06:23N 48°44' W 003°59'0 0.1
2017-Dec-19 03:45N 48°44' W 003°58'1 4.9
2017-Dec-19 03:30N 48°44' W 003°57'3 5.1
2017-Dec-19 03:01N 48°47' W 003°56'1 0.9
2017-Dec-19 02:19N 48°46' W 003°55'3 3.5
2017-Dec-19 01:24N 48°47' W 004°00'4 9.4
2017-Dec-19 00:57N 48°47' W 004°06'5 8.9
2017-Dec-19 00:22N 48°45' W 004°14'3 8.7
2017-Dec-18 23:59N 48°44' W 004°19'4 8.4
2017-Dec-18 23:30N 48°43' W 004°25'4 8.1
2017-Dec-18 23:00N 48°42' W 004°31'4 7.7
2017-Dec-18 22:31N 48°41' W 004°36'4 7.5
2017-Dec-18 22:01N 48°39' W 004°41'4 7.3
2017-Dec-18 21:30N 48°38' W 004°46'3 6.8
2017-Dec-18 21:01N 48°35' W 004°50'4 8.2
2017-Dec-18 20:30N 48°32' W 004°54'4 8.8
2017-Dec-18 20:00N 48°29' W 004°58'3 6.5
2017-Dec-18 19:31N 48°27' W 005°02'2 3.0
2017-Dec-18 19:01N 48°26' W 005°04'2 4.9
2017-Dec-18 18:31N 48°24' W 005°06'5 8.7
2017-Dec-18 17:59N 48°20' W 005°10'6 9.3
2017-Dec-18 17:23N 48°15' W 005°14'4 9.6
2017-Dec-18 17:00N 48°12' W 005°17'6 9.8
2017-Dec-18 16:26N 48°08' W 005°22'510.2
2017-Dec-18 15:58N 48°04' W 005°26'710.4
2017-Dec-18 15:18N 47°58' W 005°32'310.5
2017-Dec-18 14:59N 47°55' W 005°34'610.5
2017-Dec-18 14:27N 47°50' W 005°39'510.5
2017-Dec-18 13:58N 47°46' W 005°43'510.6
2017-Dec-18 13:30N 47°42' W 005°47'510.2
2017-Dec-18 12:57N 47°37' W 005°51'510.2
2017-Dec-18 12:30N 47°33' W 005°55'6 9.9
2017-Dec-18 11:57N 47°29' W 005°60'5 9.6
2017-Dec-18 11:28N 47°25' W 006°03'4 7.7
2017-Dec-18 10:59N 47°22' W 006°06'0 0.6
2017-Dec-18 10:16N 47°22' W 006°06'1 2.8
2017-Dec-18 09:56N 47°21' W 006°07'3 0.2
2017-Dec-17 18:01N 47°24' W 006°04'2 3.2
2017-Dec-17 17:25N 47°22' W 006°06'  

Dump ship's entire track history